Time;durP1;ratioP1;P1;durP2;ratioP2;P2;SDS_P1;SDS_P2;PMS_P1;PMS_P2;Temp;Humidity;BMP_temperature;BMP_pressure;BME280_temperature;BME280_humidity;BME280_pressure;Samples;Min_cycle;Max_cycle;Signal;HPM_P1;HPM_P2
2022/07/14 06:47:58;;;;;;;15.90;4.65;;;19.50;99.90;;;;;;5090954;27;20532;-71
2022/07/14 06:50:23;;;;;;;14.10;5.32;;;18.50;99.90;;;;;;5090917;28;20189;-72
2022/07/14 06:52:49;;;;;;;13.38;5.25;;;18.50;99.90;;;;;;5090897;28;20164;-70
2022/07/14 06:55:15;;;;;;;11.38;4.85;;;18.50;99.90;;;;;;5089578;28;20267;-70
2022/07/14 06:57:41;;;;;;;13.25;5.30;;;18.40;99.90;;;;;;5090756;28;20171;-70
2022/07/14 07:00:08;;;;;;;15.23;5.05;;;18.50;99.90;;;;;;5090651;28;20301;-70
2022/07/14 07:02:35;;;;;;;11.15;4.57;;;18.50;99.90;;;;;;5090716;28;20167;-70
2022/07/14 07:07:47;;;;;;;15.27;5.05;;;18.50;99.90;;;;;;5090440;28;20233;-70
2022/07/14 07:10:12;;;;;;;12.50;4.80;;;18.60;99.90;;;;;;5090486;28;20191;-70
2022/07/14 07:12:38;;;;;;;17.08;6.13;;;18.50;99.90;;;;;;5090399;28;20263;-75
2022/07/14 07:15:05;;;;;;;11.48;5.28;;;18.40;99.90;;;;;;5090319;28;20527;-74
2022/07/14 07:17:31;;;;;;;16.35;4.97;;;18.50;99.90;;;;;;5090435;28;20175;-77
2022/07/14 07:19:57;;;;;;;18.05;6.28;;;18.60;99.90;;;;;;5090339;28;20175;-77
2022/07/14 07:22:22;;;;;;;15.35;6.20;;;18.70;99.90;;;;;;5090173;28;20652;-77
2022/07/14 07:24:48;;;;;;;15.18;5.32;;;18.70;99.90;;;;;;5090262;28;20202;-77
2022/07/14 07:27:14;;;;;;;17.55;5.30;;;19.00;99.90;;;;;;5090027;28;20718;-77
2022/07/14 07:29:40;;;;;;;22.80;4.95;;;19.00;99.90;;;;;;5090178;28;20514;-78
2022/07/14 07:32:07;;;;;;;17.05;4.32;;;19.00;99.90;;;;;;5088925;28;20179;-78
2022/07/14 07:34:36;;;;;;;11.32;5.13;;;19.00;99.90;;;;;;5089961;28;20614;-82
2022/07/14 07:37:02;;;;;;;14.48;5.15;;;19.00;99.90;;;;;;5088665;28;20171;-80
2022/07/14 07:39:28;;;;;;;18.70;4.88;;;19.10;99.90;;;;;;5089896;28;20175;-80
2022/07/14 07:41:55;;;;;;;14.25;4.40;;;19.10;99.90;;;;;;5089861;28;20167;-79
2022/07/14 07:44:21;;;;;;;18.92;4.88;;;19.00;99.90;;;;;;5088643;28;20186;-79
2022/07/14 07:46:46;;;;;;;13.00;4.65;;;18.90;99.90;;;;;;5089581;28;20215;-78
2022/07/14 07:49:12;;;;;;;11.05;4.55;;;19.00;99.90;;;;;;5089846;28;20559;-78
2022/07/14 07:51:38;;;;;;;18.42;4.45;;;18.90;99.90;;;;;;5088395;28;20171;-74
2022/07/14 07:54:05;;;;;;;18.35;4.90;;;18.90;99.90;;;;;;5089706;28;20592;-74
2022/07/14 07:56:31;;;;;;;14.80;5.03;;;18.90;99.90;;;;;;5089569;28;20170;-74
2022/07/14 07:58:56;;;;;;;20.65;5.15;;;18.80;99.90;;;;;;5077044;28;20172;-75
2022/07/14 08:01:22;;;;;;;11.32;4.38;;;18.70;99.90;;;;;;5076058;28;20168;-75
2022/07/14 08:03:47;;;;;;;18.33;5.63;;;18.80;99.90;;;;;;5076023;28;20176;-75
2022/07/14 08:06:13;;;;;;;20.15;4.57;;;18.80;99.90;;;;;;5075900;28;20230;-74
2022/07/14 08:08:39;;;;;;;12.30;4.60;;;18.90;99.90;;;;;;5075981;28;20160;-74
2022/07/14 08:11:05;;;;;;;14.75;5.13;;;18.80;99.90;;;;;;5075814;28;20376;-75
2022/07/14 08:13:30;;;;;;;17.13;5.22;;;18.80;99.90;;;;;;5075742;28;20654;-75
2022/07/14 08:15:57;;;;;;;10.90;5.30;;;18.90;99.90;;;;;;5075760;28;20176;-76
2022/07/14 08:18:23;;;;;;;15.13;5.75;;;18.90;99.90;;;;;;5075772;28;20218;-76
2022/07/14 08:20:49;;;;;;;11.45;4.90;;;18.80;99.90;;;;;;5075711;28;20172;-75
2022/07/14 08:23:15;;;;;;;10.77;4.22;;;18.60;99.90;;;;;;5075669;28;20168;-74
2022/07/14 08:25:41;;;;;;;11.48;4.65;;;18.60;99.90;;;;;;5075492;28;20168;-75
2022/07/14 08:28:06;;;;;;;9.82;4.18;;;18.70;99.90;;;;;;5075526;28;20167;-75
2022/07/14 08:30:32;;;;;;;12.63;3.95;;;18.70;99.90;;;;;;5074278;28;20167;-74
2022/07/14 08:32:57;;;;;;;10.65;3.80;;;18.80;99.90;;;;;;5075466;28;20168;-74
2022/07/14 08:35:25;;;;;;;19.08;4.75;;;19.00;99.90;;;;;;5075391;28;20580;-75
2022/07/14 08:37:52;;;;;;;6.28;3.80;;;19.00;99.90;;;;;;5075303;28;20194;-72
2022/07/14 08:40:20;;;;;;;11.05;3.90;;;19.10;99.90;;;;;;5075270;28;20192;-72
2022/07/14 08:42:49;;;;;;;8.05;4.15;;;19.20;99.90;;;;;;5075231;28;20633;-80
2022/07/14 08:45:19;;;;;;;9.88;4.22;;;19.40;99.90;;;;;;5075208;28;20637;-82
2022/07/14 08:47:46;;;;;;;7.38;3.35;;;19.50;99.90;;;;;;5074992;28;20388;-78
2022/07/14 08:50:20;;;;;;;10.73;3.50;;;19.70;99.90;;;;;;5075153;28;20164;-78
2022/07/14 08:52:46;;;;;;;10.20;3.78;;;19.80;99.90;;;;;;5074993;28;20161;-76
2022/07/14 08:55:14;;;;;;;8.70;3.97;;;19.90;99.90;;;;;;5075062;28;20180;-76
2022/07/14 08:57:41;;;;;;;14.25;4.05;;;20.00;99.90;;;;;;5074970;28;20168;-77
2022/07/14 09:00:13;;;;;;;12.88;3.63;;;20.00;99.90;;;;;;5074935;28;20168;-77
2022/07/14 09:02:41;;;;;;;6.75;3.80;;;20.00;99.90;;;;;;5074928;28;20172;-75
2022/07/14 09:05:07;;;;;;;7.32;3.97;;;19.90;99.90;;;;;;5073544;28;20171;-75
2022/07/14 09:07:38;;;;;;;7.10;3.97;;;19.90;99.90;;;;;;5074761;28;20587;-74
2022/07/14 09:10:13;;;;;;;8.88;3.65;;;19.90;99.90;;;;;;5073742;28;20575;-73
2022/07/14 09:12:41;;;;;;;8.27;3.55;;;19.90;99.90;;;;;;5073357;28;20188;-76
2022/07/14 09:17:58;;;;;;;17.75;3.53;;;20.00;99.90;;;;;;5074817;28;20188;-76
2022/07/14 09:20:32;;;;;;;8.65;3.05;;;20.00;99.90;;;;;;5073247;28;20641;-80
2022/07/14 09:23:06;;;;;;;7.10;2.78;;;19.90;99.90;;;;;;5073287;28;20176;-81
2022/07/14 09:25:40;;;;;;;4.40;3.20;;;19.90;99.90;;;;;;5074476;28;20163;-78
2022/07/14 09:28:09;;;;;;;9.35;3.30;;;19.90;99.90;;;;;;5074353;28;20223;-77
2022/07/14 09:30:35;;;;;;;7.63;2.95;;;19.90;99.90;;;;;;5074422;28;20191;-78
2022/07/14 09:33:04;;;;;;;9.40;2.92;;;20.00;99.90;;;;;;5074196;28;20171;-78
2022/07/14 09:35:34;;;;;;;10.02;4.03;;;20.20;99.90;;;;;;5074279;28;20160;-79
2022/07/14 09:38:01;;;;;;;10.63;3.22;;;20.30;99.90;;;;;;5073016;28;20198;-74
2022/07/14 09:40:30;;;;;;;2.45;2.10;;;20.40;99.90;;;;;;5074074;28;20175;-75
2022/07/14 09:42:57;;;;;;;4.07;2.20;;;20.50;99.90;;;;;;5072840;28;20203;-77
2022/07/14 09:45:31;;;;;;;4.25;2.28;;;20.60;99.90;;;;;;5074009;28;20163;-77
2022/07/14 09:48:01;;;;;;;7.88;2.65;;;20.70;99.90;;;;;;5073796;28;20211;-78
2022/07/14 09:50:33;;;;;;;5.38;2.13;;;20.80;99.90;;;;;;5072628;28;20220;-79
2022/07/14 09:53:08;;;;;;;4.03;1.80;;;21.00;99.90;;;;;;5072613;28;20205;-80
2022/07/14 09:55:36;;;;;;;6.43;2.13;;;21.10;99.90;;;;;;5072496;28;20561;-80
2022/07/14 09:58:06;;;;;;;6.53;2.13;;;21.00;99.90;;;;;;5072592;28;20168;-76
2022/07/14 10:00:34;;;;;;;5.55;2.13;;;21.20;99.90;;;;;;5074677;28;20175;-74
2022/07/14 10:03:05;;;;;;;4.13;2.00;;;21.30;99.90;;;;;;5073719;28;20170;-74
2022/07/14 10:05:34;;;;;;;3.65;1.75;;;21.40;99.90;;;;;;5072471;28;20183;-77
2022/07/14 10:08:04;;;;;;;6.20;2.17;;;21.20;99.90;;;;;;5073544;28;20280;-78
2022/07/14 10:10:36;;;;;;;3.15;1.80;;;21.10;99.90;;;;;;5072381;28;20178;-76
2022/07/14 10:13:04;;;;;;;5.45;2.08;;;21.20;99.90;;;;;;5073495;28;20184;-80
2022/07/14 10:15:30;;;;;;;5.38;2.60;;;21.40;99.90;;;;;;5072798;28;20575;-86
2022/07/14 10:17:59;;;;;;;6.53;2.22;;;21.50;99.90;;;;;;5072199;28;20171;-77
2022/07/14 10:20:26;;;;;;;2.95;2.20;;;21.70;99.90;;;;;;5073332;28;20174;-78
2022/07/14 10:22:55;;;;;;;7.07;2.17;;;21.60;99.90;;;;;;5073508;28;20168;-76
2022/07/14 10:25:21;;;;;;;7.43;2.78;;;21.40;99.90;;;;;;5072156;28;20175;-76
2022/07/14 10:27:48;;;;;;;10.10;3.03;;;21.20;99.90;;;;;;5073276;28;20286;-76
2022/07/14 10:30:15;;;;;;;7.13;2.58;;;20.90;99.90;;;;;;5072102;28;20175;-80
2022/07/14 10:33:00;;;;;;;7.25;2.55;;;20.70;99.90;;;;;;5072000;28;20648;-78
2022/07/14 10:35:35;;;;;;;7.13;2.30;;;20.60;99.90;;;;;;5073351;28;20156;-74
2022/07/14 10:38:11;;;;;;;8.55;2.45;;;20.30;99.90;;;;;;5073363;28;20702;-73
2022/07/14 10:40:45;;;;;;;11.27;2.38;;;20.10;99.90;;;;;;5072105;28;20189;-74
2022/07/14 10:43:16;;;;;;;7.00;2.13;;;20.00;99.90;;;;;;5073195;28;20167;-74
2022/07/14 10:45:53;;;;;;;6.72;2.05;;;20.00;99.90;;;;;;5072999;28;20223;-74
2022/07/14 10:48:33;;;;;;;9.40;2.40;;;20.00;99.90;;;;;;5072897;28;20168;-74
2022/07/14 10:51:14;;;;;;;7.03;2.20;;;20.10;99.90;;;;;;5072764;28;20163;-72
2022/07/14 10:53:59;;;;;;;6.93;2.08;;;20.20;99.90;;;;;;5073082;28;20621;-73
2022/07/14 10:56:28;;;;;;;5.20;1.80;;;20.30;99.90;;;;;;5073057;28;20663;-73
2022/07/14 10:59:24;;;;;;;5.25;1.92;;;20.40;99.90;;;;;;5073083;28;20672;-73
2022/07/14 11:04:59;;;;;;;4.25;1.60;;;20.40;99.90;;;;;;5073078;28;20167;-74
2022/07/14 11:07:40;;;;;;;9.13;2.50;;;20.30;99.90;;;;;;5072826;28;20206;-74
2022/07/14 11:10:26;;;;;;;4.75;1.70;;;20.40;99.90;;;;;;5072947;28;20633;-73
2022/07/14 11:13:03;;;;;;;5.85;1.90;;;20.40;99.90;;;;;;5071471;28;20591;-74
2022/07/14 11:15:37;;;;;;;1.80;1.60;;;20.50;99.90;;;;;;5073057;28;20217;-74
2022/07/14 11:18:30;;;;;;;4.13;1.50;;;20.50;99.90;;;;;;5072937;28;20655;-73
2022/07/14 11:21:11;;;;;;;4.00;2.00;;;20.50;99.90;;;;;;5072957;28;20225;-73
2022/07/14 11:23:48;;;;;;;3.50;1.45;;;20.70;99.90;;;;;;5072952;28;20172;-73
2022/07/14 11:26:44;;;;;;;4.10;1.80;;;20.90;99.90;;;;;;5072839;28;20191;-73
2022/07/14 11:29:11;;;;;;;3.28;1.75;;;20.90;99.90;;;;;;5072673;28;20737;-73
2022/07/14 11:31:46;;;;;;;4.05;2.58;;;21.00;99.90;;;;;;5072833;28;20167;-73
2022/07/14 11:37:59;;;;;;;2.83;1.35;;;21.20;99.90;;;;;;5075989;28;20187;-73
2022/07/14 11:40:51;;;;;;;3.40;1.73;;;21.40;99.90;;;;;;5076522;28;20199;-73
2022/07/14 11:43:28;;;;;;;1.75;1.35;;;21.50;99.90;;;;;;5076429;28;20641;-73
2022/07/14 11:45:58;;;;;;;3.33;2.35;;;21.70;99.90;;;;;;5074858;28;20223;-73
2022/07/14 11:48:28;;;;;;;3.20;1.45;;;21.70;99.90;;;;;;5076370;28;20648;-73
2022/07/14 11:51:09;;;;;;;5.10;1.70;;;21.80;99.90;;;;;;5076300;28;20610;-73
2022/07/14 11:53:36;;;;;;;3.90;1.90;;;21.70;99.90;;;;;;5075012;28;20253;-73
2022/07/14 11:56:06;;;;;;;3.13;1.98;;;21.80;99.90;;;;;;5074918;28;20172;-73
2022/07/14 11:58:32;;;;;;;4.78;1.92;;;21.70;99.90;;;;;;5076138;28;20160;-73
2022/07/14 12:01:00;;;;;;;4.60;2.30;;;21.70;99.90;;;;;;5074835;28;20175;-73
2022/07/14 12:03:26;;;;;;;2.70;1.60;;;21.70;99.90;;;;;;5076128;28;20241;-73
2022/07/14 12:05:56;;;;;;;5.78;1.98;;;21.70;99.90;;;;;;5075923;28;20171;-73
2022/07/14 12:08:37;;;;;;;3.03;1.60;;;21.80;99.90;;;;;;5076000;28;20191;-73
2022/07/14 12:11:09;;;;;;;5.55;1.92;;;22.00;99.90;;;;;;5074706;28;20171;-73
2022/07/14 12:13:50;;;;;;;3.35;1.67;;;22.30;99.90;;;;;;5075855;28;20672;-73
2022/07/14 12:16:16;;;;;;;7.00;1.98;;;22.30;99.90;;;;;;5074582;28;20176;-73
2022/07/14 12:18:42;;;;;;;4.82;2.35;;;22.30;99.90;;;;;;5075771;28;20233;-73
2022/07/14 12:21:08;;;;;;;6.07;2.05;;;22.40;99.90;;;;;;5075611;28;20570;-73
2022/07/14 12:23:35;;;;;;;3.05;1.92;;;22.50;99.90;;;;;;5075560;28;20180;-73
2022/07/14 12:26:03;;;;;;;2.83;1.63;;;22.60;99.90;;;;;;5075590;28;20217;-73
2022/07/14 12:28:28;;;;;;;3.70;1.70;;;22.70;99.90;;;;;;5075634;28;20171;-73
2022/07/14 12:30:59;;;;;;;6.30;1.95;;;22.90;99.90;;;;;;5075548;28;20243;-77
2022/07/14 12:33:36;;;;;;;1.45;1.35;;;23.00;99.90;;;;;;5075543;28;20199;-78
2022/07/14 12:36:03;;;;;;;6.72;2.08;;;23.10;99.90;;;;;;5074483;28;20523;-80
2022/07/14 12:38:31;;;;;;;2.53;1.42;;;22.90;99.90;;;;;;5075696;28;20168;-80
2022/07/14 12:41:01;;;;;;;4.15;2.05;;;22.80;99.90;;;;;;5075326;28;20196;-77
2022/07/14 12:43:30;;;;;;;2.50;1.80;;;22.90;99.90;;;;;;5075265;28;20247;-77
2022/07/14 12:46:02;;;;;;;5.18;1.83;;;23.10;99.90;;;;;;5075030;28;20303;-77
2022/07/14 12:48:47;;;;;;;3.88;1.30;;;23.10;99.90;;;;;;5074136;28;20167;-77
2022/07/14 12:51:22;;;;;;;4.68;1.92;;;23.20;99.90;;;;;;5075250;28;20168;-77
2022/07/14 12:53:57;;;;;;;2.03;1.50;;;23.10;99.90;;;;;;5075151;28;20175;-77
2022/07/14 12:56:23;;;;;;;3.83;1.75;;;23.20;99.90;;;;;;5075161;28;20190;-77
2022/07/14 12:58:49;;;;;;;4.72;1.95;;;23.40;99.90;;;;;;5073829;28;20210;-77
2022/07/14 13:01:15;;;;;;;3.00;1.92;;;23.50;99.90;;;;;;5073654;28;20171;-77
2022/07/14 13:03:46;;;;;;;4.75;2.13;;;23.40;99.90;;;;;;5073707;28;20203;-77
2022/07/14 13:06:12;;;;;;;2.05;1.70;;;23.30;99.90;;;;;;5074800;28;20202;-77
2022/07/14 13:08:40;;;;;;;4.65;1.67;;;23.50;99.90;;;;;;5074854;28;20164;-77
2022/07/14 13:11:11;;;;;;;7.65;1.80;;;23.70;99.90;;;;;;5074705;28;20194;-77
2022/07/14 13:13:59;;;;;;;4.38;1.48;;;23.70;99.90;;;;;;5074623;28;20184;-77
2022/07/14 13:16:29;;;;;;;3.83;1.80;;;23.70;99.90;;;;;;5073443;28;20171;-79
2022/07/14 13:19:22;;;;;;;4.53;2.40;;;23.50;99.90;;;;;;5074653;28;20175;-78
2022/07/14 13:22:06;;;;;;;5.10;1.80;;;23.30;99.90;;;;;;5074589;28;20221;-77
2022/07/14 13:24:43;;;;;;;5.75;2.03;;;23.40;99.90;;;;;;5074345;28;20243;-77
2022/07/14 13:27:18;;;;;;;5.85;1.90;;;23.40;99.90;;;;;;5074380;28;20184;-78
2022/07/14 13:29:47;;;;;;;4.40;1.90;;;23.30;99.90;;;;;;5074330;28;20254;-77
2022/07/14 13:32:14;;;;;;;2.15;1.63;;;23.30;99.90;;;;;;5074457;28;20160;-77
2022/07/14 13:34:41;;;;;;;3.00;1.60;;;23.30;99.90;;;;;;5073156;28;20164;-78
2022/07/14 13:37:08;;;;;;;3.70;2.03;;;23.70;99.90;;;;;;5074269;28;20163;-77
2022/07/14 13:39:34;;;;;;;4.88;1.90;;;23.80;99.90;;;;;;5074180;28;20171;-78
2022/07/14 13:42:01;;;;;;;2.40;1.55;;;23.70;99.90;;;;;;5074192;28;20522;-78
2022/07/14 13:44:27;;;;;;;2.42;2.22;;;23.80;99.90;;;;;;5074050;28;20168;-78
2022/07/14 13:46:53;;;;;;;2.80;2.10;;;24.00;99.90;;;;;;5072557;28;20224;-77
2022/07/14 13:49:19;;;;;;;2.30;1.70;;;24.20;99.90;;;;;;5074091;28;20369;-78
2022/07/14 13:54:30;;;;;;;1.77;1.60;;;23.60;99.90;;;;;;5073929;28;20225;-77
2022/07/14 13:56:55;;;;;;;4.18;1.95;;;23.10;99.90;;;;;;5073217;28;20263;-77
2022/07/14 13:59:21;;;;;;;3.47;1.83;;;22.70;99.90;;;;;;5073821;28;20196;-78
2022/07/14 14:01:47;;;;;;;6.38;2.45;;;22.50;99.90;;;;;;5073830;28;20186;-77
2022/07/14 14:04:14;;;;;;;3.35;1.63;;;22.40;99.90;;;;;;5073830;28;20195;-79
2022/07/14 14:06:41;;;;;;;2.65;1.70;;;22.30;99.90;;;;;;5073660;28;20187;-78
2022/07/14 14:09:08;;;;;;;2.17;1.95;;;22.40;99.90;;;;;;5073725;28;20551;-79
2022/07/14 14:11:34;;;;;;;3.08;1.52;;;22.80;99.90;;;;;;5073684;28;20168;-79
2022/07/14 14:14:00;;;;;;;3.30;1.60;;;23.20;99.90;;;;;;5073688;28;20178;-79
2022/07/14 14:16:26;;;;;;;5.30;1.92;;;23.70;99.90;;;;;;5073616;28;20258;-80
2022/07/14 14:18:52;;;;;;;3.53;1.50;;;24.00;99.90;;;;;;5072291;28;20171;-80
2022/07/14 14:21:18;;;;;;;3.75;2.03;;;23.80;99.90;;;;;;5073588;28;20233;-78
2022/07/14 14:23:44;;;;;;;1.80;1.60;;;23.30;99.90;;;;;;5073514;28;20203;-79
2022/07/14 14:26:10;;;;;;;4.78;1.63;;;22.90;99.90;;;;;;5073465;28;20183;-79
2022/07/14 14:28:35;;;;;;;3.13;2.50;;;22.50;99.90;;;;;;5073468;28;20176;-78
2022/07/14 14:31:01;;;;;;;3.53;2.20;;;22.30;99.90;;;;;;5073468;28;20527;-79
2022/07/14 14:33:27;;;;;;;3.63;1.75;;;22.30;99.90;;;;;;5073416;28;20529;-79
2022/07/14 14:35:53;;;;;;;2.35;1.80;;;22.60;99.90;;;;;;5072135;28;20537;-77
2022/07/14 14:38:18;;;;;;;4.28;2.00;;;22.60;99.90;;;;;;5072085;28;20172;-77
2022/07/14 14:40:44;;;;;;;2.67;1.83;;;23.10;99.90;;;;;;5073350;28;20576;-79
2022/07/14 14:43:12;;;;;;;3.03;1.73;;;23.50;99.90;;;;;;5073402;28;20164;-77
2022/07/14 14:45:42;;;;;;;4.15;1.45;;;24.10;99.90;;;;;;5071785;28;20175;-80
2022/07/14 14:48:08;;;;;;;3.33;1.60;;;24.70;99.90;;;;;;5073227;28;20680;-79
2022/07/14 14:50:35;;;;;;;4.75;1.48;;;24.60;99.90;;;;;;5073208;28;20278;-78
2022/07/14 14:53:01;;;;;;;4.05;2.35;;;24.30;99.90;;;;;;5071893;28;20167;-79
2022/07/14 14:55:26;;;;;;;4.15;1.65;;;23.70;99.90;;;;;;5073156;28;20167;-79
2022/07/14 14:57:52;;;;;;;5.50;1.40;;;23.20;99.90;;;;;;5073201;28;20175;-77
2022/07/14 15:00:19;;;;;;;3.05;1.70;;;23.00;99.90;;;;;;5073143;28;20175;-77
2022/07/14 15:02:45;;;;;;;2.20;1.67;;;22.70;99.90;;;;;;5073104;28;20585;-77
2022/07/14 15:05:11;;;;;;;2.38;1.92;;;22.70;99.90;;;;;;5071759;28;20202;-79
2022/07/14 15:07:37;;;;;;;2.63;1.30;;;23.10;99.90;;;;;;5073236;28;20266;-79
2022/07/14 15:10:05;;;;;;;3.55;1.63;;;23.80;99.90;;;;;;5077093;28;20160;-80
2022/07/14 15:12:31;;;;;;;1.80;1.50;;;24.50;99.90;;;;;;5077053;28;20647;-79
2022/07/14 15:14:57;;;;;;;4.18;1.50;;;24.70;99.90;;;;;;5077008;28;20172;-79
2022/07/14 15:17:23;;;;;;;2.70;1.80;;;24.40;99.90;;;;;;5076929;28;20195;-79
2022/07/14 15:19:48;;;;;;;6.90;2.00;;;24.10;99.90;;;;;;5077013;28;20179;-79
2022/07/14 15:22:17;;;;;;;2.25;1.63;;;23.70;99.90;;;;;;5076822;28;20504;-77
2022/07/14 15:24:49;;;;;;;1.60;1.50;;;23.30;99.90;;;;;;5076885;28;20164;-77
2022/07/14 15:27:16;;;;;;;2.88;1.55;;;23.30;99.90;;;;;;5076745;28;20679;-77
2022/07/14 15:29:43;;;;;;;3.00;1.63;;;23.20;99.90;;;;;;5076649;28;20238;-77
2022/07/14 15:32:09;;;;;;;1.65;1.58;;;23.10;99.90;;;;;;5076697;28;20266;-77
2022/07/14 15:34:35;;;;;;;1.80;1.60;;;23.10;99.90;;;;;;5076596;28;20248;-77
2022/07/14 15:37:01;;;;;;;3.90;1.50;;;23.20;99.90;;;;;;5076504;28;20696;-77
2022/07/14 15:42:11;;;;;;;3.70;1.50;;;24.60;99.90;;;;;;5076511;28;20663;-77
2022/07/14 15:44:37;;;;;;;3.15;1.40;;;25.20;99.90;;;;;;5076405;28;20176;-77
2022/07/14 15:47:03;;;;;;;9.55;1.92;;;25.80;99.90;;;;;;5076051;28;20219;-77
2022/07/14 15:49:28;;;;;;;2.70;1.23;;;25.90;99.90;;;;;;5076330;28;20517;-77
2022/07/14 15:51:56;;;;;;;1.60;1.50;;;25.90;99.90;;;;;;5076321;28;20521;-77
2022/07/14 15:54:21;;;;;;;1.92;1.40;;;25.60;99.90;;;;;;5076305;28;20187;-77
2022/07/14 15:56:47;;;;;;;5.72;1.33;;;26.20;99.90;;;;;;5074928;28;20207;-77
2022/07/14 15:59:13;;;;;;;2.83;1.70;;;26.70;99.90;;;;;;5076123;28;20565;-77
2022/07/14 16:01:38;;;;;;;2.75;1.40;;;27.10;99.90;;;;;;5076105;28;20163;-77
2022/07/14 16:04:06;;;;;;;4.85;1.70;;;27.40;99.90;;;;;;5076033;28;20683;-79
2022/07/14 16:06:32;;;;;;;2.00;1.80;;;27.70;99.90;;;;;;5075909;28;20206;-77
2022/07/14 16:08:59;;;;;;;2.90;1.48;;;27.60;99.90;;;;;;5075952;28;20167;-77
2022/07/14 16:11:25;;;;;;;2.53;1.42;;;27.70;99.90;;;;;;5075962;28;20160;-77
2022/07/14 16:13:50;;;;;;;2.83;1.73;;;27.10;99.90;;;;;;5075925;28;20172;-77
2022/07/14 16:16:16;;;;;;;2.25;1.40;;;26.70;99.90;;;;;;5075900;28;20199;-77
2022/07/14 16:18:42;;;;;;;3.08;1.50;;;26.70;99.90;;;;;;5075300;28;20176;-77
2022/07/14 16:21:08;;;;;;;2.33;1.73;;;27.00;99.90;;;;;;5075815;28;20630;-76
2022/07/14 16:23:35;;;;;;;1.40;1.30;;;27.40;99.90;;;;;;5075623;28;20188;-77
2022/07/14 16:26:00;;;;;;;2.97;1.50;;;27.30;99.90;;;;;;5075617;28;20171;-77
2022/07/14 16:28:26;;;;;;;5.28;1.48;;;27.00;99.90;;;;;;5075696;28;20167;-77
2022/07/14 16:30:52;;;;;;;3.00;1.65;;;26.30;99.90;;;;;;5075599;28;20182;-76
2022/07/14 16:33:17;;;;;;;2.20;1.77;;;25.80;99.90;;;;;;5075555;28;20675;-76
2022/07/14 16:35:43;;;;;;;2.15;1.50;;;25.10;99.90;;;;;;5075634;28;20592;-76
2022/07/14 16:38:08;;;;;;;3.08;1.50;;;24.50;99.90;;;;;;5075493;28;20164;-76
2022/07/14 16:40:34;;;;;;;1.55;1.40;;;24.00;99.90;;;;;;5075427;28;20624;-76
2022/07/14 16:43:00;;;;;;;2.70;1.33;;;23.70;99.90;;;;;;5075411;28;20172;-76
2022/07/14 16:45:26;;;;;;;2.88;1.40;;;23.30;99.90;;;;;;5074010;28;20167;-76
2022/07/14 16:47:55;;;;;;;2.75;1.30;;;23.40;99.90;;;;;;5075049;28;20226;-76
2022/07/14 16:50:22;;;;;;;3.10;1.52;;;23.80;99.90;;;;;;5075293;28;20629;-76
2022/07/14 16:52:47;;;;;;;1.45;1.35;;;24.20;99.90;;;;;;5075108;28;20660;-76
2022/07/14 16:55:13;;;;;;;4.45;1.20;;;24.10;99.90;;;;;;5075182;28;20164;-77
2022/07/14 16:57:38;;;;;;;3.95;1.33;;;23.90;99.90;;;;;;5075087;28;20172;-77
2022/07/14 17:00:13;;;;;;;1.20;1.10;;;23.60;99.90;;;;;;5075052;28;20168;-77
2022/07/14 17:02:39;;;;;;;3.17;1.55;;;23.50;99.90;;;;;;5073793;28;20543;-77
2022/07/14 17:08:04;;;;;;;1.88;1.60;;;23.20;99.90;;;;;;5084550;28;20791;-77
2022/07/14 17:10:30;;;;;;;3.20;1.60;;;23.30;99.90;;;;;;5074767;28;20172;-76
2022/07/14 17:12:56;;;;;;;2.95;1.50;;;23.40;99.90;;;;;;5074737;28;20168;-77
2022/07/14 17:15:21;;;;;;;1.85;1.30;;;23.50;99.90;;;;;;5074662;28;20220;-77
2022/07/14 17:17:47;;;;;;;3.35;1.20;;;23.30;99.90;;;;;;5074612;28;20344;-77
2022/07/14 17:20:13;;;;;;;6.53;1.55;;;23.20;99.90;;;;;;5074623;28;20164;-77
2022/07/14 17:22:38;;;;;;;2.83;1.50;;;22.80;99.90;;;;;;5073293;28;20187;-77
2022/07/14 17:25:04;;;;;;;4.30;1.67;;;22.50;99.90;;;;;;5074962;28;20160;-78
2022/07/14 17:27:30;;;;;;;3.97;1.77;;;22.30;99.90;;;;;;5074492;28;20282;-77
2022/07/14 17:29:55;;;;;;;4.00;1.60;;;22.20;99.90;;;;;;5074168;28;20178;-77
2022/07/14 17:32:21;;;;;;;4.32;1.75;;;22.20;99.90;;;;;;5073832;28;20258;-77
2022/07/14 17:34:46;;;;;;;1.98;1.70;;;22.30;99.90;;;;;;5074460;28;20167;-80
2022/07/14 17:37:12;;;;;;;4.30;1.80;;;22.10;99.90;;;;;;5074389;28;20175;-77
2022/07/14 17:39:38;;;;;;;7.97;1.90;;;22.10;99.90;;;;;;5073920;28;20517;-77
2022/07/14 17:42:03;;;;;;;1.30;1.30;;;21.90;99.90;;;;;;5074061;28;20167;-77
2022/07/14 17:44:29;;;;;;;3.03;1.52;;;22.10;99.90;;;;;;5072876;28;20172;-77
2022/07/14 17:46:55;;;;;;;1.85;1.75;;;22.50;99.90;;;;;;5073833;28;20226;-77
2022/07/14 17:49:21;;;;;;;2.45;1.38;;;22.70;99.90;;;;;;5074126;28;20163;-77
2022/07/14 17:54:30;;;;;;;2.97;1.58;;;23.00;99.90;;;;;;5074002;28;20178;-77
2022/07/14 17:56:56;;;;;;;4.18;1.60;;;23.10;99.90;;;;;;5073939;28;20621;-77
2022/07/14 17:59:22;;;;;;;2.08;1.65;;;23.20;99.90;;;;;;5073829;28;20175;-77
2022/07/14 18:01:47;;;;;;;4.65;1.77;;;23.00;99.90;;;;;;5073776;28;20529;-77
2022/07/14 18:04:13;;;;;;;2.35;1.40;;;22.80;99.90;;;;;;5073694;28;20215;-77
2022/07/14 18:06:39;;;;;;;4.18;1.80;;;22.40;99.90;;;;;;5073598;28;20195;-77
2022/07/14 18:09:05;;;;;;;2.15;1.25;;;22.20;99.90;;;;;;5073681;28;20168;-77
2022/07/14 18:11:31;;;;;;;7.88;2.13;;;22.30;99.90;;;;;;5073685;28;20213;-77
2022/07/14 18:13:57;;;;;;;2.67;1.60;;;22.30;99.90;;;;;;5073697;28;20164;-77
2022/07/14 18:16:23;;;;;;;1.42;1.40;;;21.90;99.90;;;;;;5072383;28;20176;-77
2022/07/14 18:18:48;;;;;;;6.57;1.70;;;22.20;99.90;;;;;;5073643;28;20204;-77
2022/07/14 18:21:14;;;;;;;2.63;1.48;;;22.50;99.90;;;;;;5073437;28;20203;-77
2022/07/14 18:23:40;;;;;;;1.63;1.50;;;22.90;99.90;;;;;;5073614;28;20266;-77
2022/07/14 18:26:06;;;;;;;3.53;3.10;;;23.30;99.90;;;;;;5073439;28;20172;-77
2022/07/14 18:28:33;;;;;;;2.42;2.22;;;23.50;99.90;;;;;;5073482;28;20163;-77
2022/07/14 18:30:58;;;;;;;3.60;2.42;;;23.60;99.90;;;;;;5073463;28;20164;-77
2022/07/14 18:33:24;;;;;;;2.50;2.30;;;23.30;99.90;;;;;;5073420;28;20218;-77
2022/07/14 18:35:50;;;;;;;4.78;2.47;;;23.00;99.90;;;;;;5072099;28;20164;-77
2022/07/14 18:38:15;;;;;;;5.95;1.48;;;22.50;99.90;;;;;;5073386;28;20622;-77
2022/07/14 18:40:41;;;;;;;3.42;1.70;;;22.10;99.90;;;;;;5073323;28;20178;-77
2022/07/14 18:43:08;;;;;;;4.38;1.70;;;22.10;99.90;;;;;;5073145;28;20225;-77
2022/07/14 18:48:18;;;;;;;3.33;1.52;;;22.30;99.90;;;;;;5073169;28;20230;-77
2022/07/14 18:50:44;;;;;;;1.90;1.73;;;22.70;99.90;;;;;;5073129;28;20531;-77
2022/07/14 18:53:09;;;;;;;3.70;1.73;;;23.00;99.90;;;;;;5071894;28;20167;-77
2022/07/14 18:55:35;;;;;;;1.80;1.40;;;23.00;99.90;;;;;;5073196;28;20313;-77
2022/07/14 18:58:01;;;;;;;1.58;1.38;;;22.80;99.90;;;;;;5073139;28;20182;-77
2022/07/14 19:00:28;;;;;;;2.25;1.80;;;22.50;99.90;;;;;;5073093;28;20178;-77
2022/07/14 19:02:54;;;;;;;3.75;1.40;;;22.20;99.90;;;;;;5073012;28;20164;-77
2022/07/14 19:05:19;;;;;;;7.72;1.55;;;21.80;99.90;;;;;;5072996;28;20217;-77
2022/07/14 19:07:45;;;;;;;12.68;1.83;;;21.50;99.90;;;;;;5072999;28;20195;-77
2022/07/14 19:10:11;;;;;;;1.60;1.50;;;21.30;99.90;;;;;;5073032;28;20164;-77
2022/07/14 19:12:37;;;;;;;4.78;1.67;;;21.10;99.90;;;;;;5073154;28;20164;-77
2022/07/14 19:15:04;;;;;;;2.90;1.58;;;21.10;99.90;;;;;;5072949;28;20172;-77
2022/07/14 19:17:29;;;;;;;3.63;1.98;;;21.10;99.90;;;;;;5072807;28;20176;-77
2022/07/14 19:19:55;;;;;;;2.08;1.50;;;21.10;99.90;;;;;;5071609;28;20229;-77
2022/07/14 19:22:20;;;;;;;2.35;1.58;;;20.90;99.90;;;;;;5071585;28;20190;-77
